sensor_id;sensor_type;location;lat;lon;timestamp;P1;durP1;ratioP1;P2;durP2;ratioP2
77085;SDS011;66014;53.134;18.006;2023-07-09T00:01:38;7.80;;;2.30;;
77085;SDS011;66014;53.134;18.006;2023-07-09T00:04:07;4.60;;;2.40;;
77085;SDS011;66014;53.134;18.006;2023-07-09T00:06:36;4.70;;;2.30;;
77085;SDS011;66014;53.134;18.006;2023-07-09T00:09:04;6.30;;;2.70;;
77085;SDS011;66014;53.134;18.006;2023-07-09T00:11:32;5.60;;;2.60;;
77085;SDS011;66014;53.134;18.006;2023-07-09T00:13:59;7.30;;;2.40;;
77085;SDS011;66014;53.134;18.006;2023-07-09T00:16:25;5.90;;;2.80;;
77085;SDS011;66014;53.134;18.006;2023-07-09T00:18:52;3.70;;;2.30;;
77085;SDS011;66014;53.134;18.006;2023-07-09T00:21:20;4.20;;;2.20;;
77085;SDS011;66014;53.134;18.006;2023-07-09T00:23:47;5.40;;;2.60;;
77085;SDS011;66014;53.134;18.006;2023-07-09T00:26:17;3.70;;;2.30;;
77085;SDS011;66014;53.134;18.006;2023-07-09T00:28:49;3.60;;;2.10;;
77085;SDS011;66014;53.134;18.006;2023-07-09T00:31:18;4.60;;;2.40;;
77085;SDS011;66014;53.134;18.006;2023-07-09T00:33:45;4.70;;;2.50;;
77085;SDS011;66014;53.134;18.006;2023-07-09T00:36:18;5.90;;;2.40;;
77085;SDS011;66014;53.134;18.006;2023-07-09T00:38:50;5.40;;;2.30;;
77085;SDS011;66014;53.134;18.006;2023-07-09T00:41:18;6.20;;;2.70;;
77085;SDS011;66014;53.134;18.006;2023-07-09T00:43:48;4.20;;;2.70;;
77085;SDS011;66014;53.134;18.006;2023-07-09T00:49:03;5.30;;;2.40;;
77085;SDS011;66014;53.134;18.006;2023-07-09T00:51:33;6.60;;;2.90;;
77085;SDS011;66014;53.134;18.006;2023-07-09T00:54:06;6.40;;;2.80;;
77085;SDS011;66014;53.134;18.006;2023-07-09T00:56:46;4.20;;;2.50;;
77085;SDS011;66014;53.134;18.006;2023-07-09T00:59:18;4.00;;;2.30;;
77085;SDS011;66014;53.134;18.006;2023-07-09T01:01:49;3.60;;;2.20;;
77085;SDS011;66014;53.134;18.006;2023-07-09T01:04:18;4.30;;;2.30;;
77085;SDS011;66014;53.134;18.006;2023-07-09T01:06:48;4.40;;;2.30;;
77085;SDS011;66014;53.134;18.006;2023-07-09T01:09:18;5.70;;;2.70;;
77085;SDS011;66014;53.134;18.006;2023-07-09T01:11:45;5.70;;;2.70;;
77085;SDS011;66014;53.134;18.006;2023-07-09T01:14:12;5.10;;;2.60;;
77085;SDS011;66014;53.134;18.006;2023-07-09T01:16:44;5.70;;;2.60;;
77085;SDS011;66014;53.134;18.006;2023-07-09T01:19:17;4.90;;;2.70;;
77085;SDS011;66014;53.134;18.006;2023-07-09T01:21:55;7.10;;;3.30;;
77085;SDS011;66014;53.134;18.006;2023-07-09T01:27:30;5.30;;;2.50;;
77085;SDS011;66014;53.134;18.006;2023-07-09T01:30:00;4.30;;;2.90;;
77085;SDS011;66014;53.134;18.006;2023-07-09T01:32:32;7.70;;;2.80;;
77085;SDS011;66014;53.134;18.006;2023-07-09T01:35:01;5.10;;;2.60;;
77085;SDS011;66014;53.134;18.006;2023-07-09T01:37:34;4.50;;;2.90;;
77085;SDS011;66014;53.134;18.006;2023-07-09T01:40:03;5.00;;;2.50;;
77085;SDS011;66014;53.134;18.006;2023-07-09T01:42:34;5.70;;;2.50;;
77085;SDS011;66014;53.134;18.006;2023-07-09T01:45:00;5.00;;;2.30;;
77085;SDS011;66014;53.134;18.006;2023-07-09T01:47:30;6.00;;;2.20;;
77085;SDS011;66014;53.134;18.006;2023-07-09T01:49:57;4.30;;;2.80;;
77085;SDS011;66014;53.134;18.006;2023-07-09T01:52:25;5.30;;;2.50;;
77085;SDS011;66014;53.134;18.006;2023-07-09T01:54:53;5.60;;;2.70;;
77085;SDS011;66014;53.134;18.006;2023-07-09T01:57:22;5.20;;;2.70;;
77085;SDS011;66014;53.134;18.006;2023-07-09T01:59:51;4.50;;;2.60;;
77085;SDS011;66014;53.134;18.006;2023-07-09T02:02:23;5.90;;;2.80;;
77085;SDS011;66014;53.134;18.006;2023-07-09T02:04:53;3.30;;;2.00;;
77085;SDS011;66014;53.134;18.006;2023-07-09T02:07:22;4.40;;;2.90;;
77085;SDS011;66014;53.134;18.006;2023-07-09T02:09:50;5.20;;;2.60;;
77085;SDS011;66014;53.134;18.006;2023-07-09T02:12:17;5.90;;;2.50;;
77085;SDS011;66014;53.134;18.006;2023-07-09T02:14:44;3.80;;;2.40;;
77085;SDS011;66014;53.134;18.006;2023-07-09T02:17:12;4.50;;;2.60;;
77085;SDS011;66014;53.134;18.006;2023-07-09T02:19:40;5.90;;;2.70;;
77085;SDS011;66014;53.134;18.006;2023-07-09T02:22:09;4.00;;;2.60;;
77085;SDS011;66014;53.134;18.006;2023-07-09T02:24:37;6.40;;;2.60;;
77085;SDS011;66014;53.134;18.006;2023-07-09T02:27:05;5.70;;;2.60;;
77085;SDS011;66014;53.134;18.006;2023-07-09T02:29:33;5.20;;;2.60;;
77085;SDS011;66014;53.134;18.006;2023-07-09T02:32:00;7.80;;;3.10;;
77085;SDS011;66014;53.134;18.006;2023-07-09T02:34:29;7.00;;;2.90;;
77085;SDS011;66014;53.134;18.006;2023-07-09T02:36:57;6.30;;;2.70;;
77085;SDS011;66014;53.134;18.006;2023-07-09T02:39:25;7.40;;;3.40;;
77085;SDS011;66014;53.134;18.006;2023-07-09T02:41:52;6.80;;;3.10;;
77085;SDS011;66014;53.134;18.006;2023-07-09T02:44:20;6.10;;;3.00;;
77085;SDS011;66014;53.134;18.006;2023-07-09T02:46:48;13.60;;;3.40;;
77085;SDS011;66014;53.134;18.006;2023-07-09T02:49:15;8.70;;;3.80;;
77085;SDS011;66014;53.134;18.006;2023-07-09T02:51:42;6.30;;;3.40;;
77085;SDS011;66014;53.134;18.006;2023-07-09T02:54:09;6.30;;;3.20;;
77085;SDS011;66014;53.134;18.006;2023-07-09T02:56:36;6.00;;;3.30;;
77085;SDS011;66014;53.134;18.006;2023-07-09T02:59:03;6.10;;;3.30;;
77085;SDS011;66014;53.134;18.006;2023-07-09T03:01:30;9.20;;;3.50;;
77085;SDS011;66014;53.134;18.006;2023-07-09T03:04:00;7.20;;;3.60;;
77085;SDS011;66014;53.134;18.006;2023-07-09T03:06:29;10.00;;;3.20;;
77085;SDS011;66014;53.134;18.006;2023-07-09T03:08:59;6.20;;;3.20;;
77085;SDS011;66014;53.134;18.006;2023-07-09T03:11:27;5.30;;;3.30;;
77085;SDS011;66014;53.134;18.006;2023-07-09T03:13:56;6.20;;;3.30;;
77085;SDS011;66014;53.134;18.006;2023-07-09T03:16:25;6.00;;;3.10;;
77085;SDS011;66014;53.134;18.006;2023-07-09T03:18:54;7.70;;;3.60;;
77085;SDS011;66014;53.134;18.006;2023-07-09T03:21:22;7.70;;;3.40;;
77085;SDS011;66014;53.134;18.006;2023-07-09T03:26:17;5.90;;;3.50;;
77085;SDS011;66014;53.134;18.006;2023-07-09T03:28:43;4.90;;;3.20;;
77085;SDS011;66014;53.134;18.006;2023-07-09T03:31:10;7.10;;;3.60;;
77085;SDS011;66014;53.134;18.006;2023-07-09T03:33:37;5.40;;;3.20;;
77085;SDS011;66014;53.134;18.006;2023-07-09T03:36:04;9.50;;;3.60;;
77085;SDS011;66014;53.134;18.006;2023-07-09T03:38:32;5.10;;;3.30;;
77085;SDS011;66014;53.134;18.006;2023-07-09T03:40:58;5.90;;;3.30;;
77085;SDS011;66014;53.134;18.006;2023-07-09T03:43:25;8.90;;;4.40;;
77085;SDS011;66014;53.134;18.006;2023-07-09T03:45:51;7.30;;;4.00;;
77085;SDS011;66014;53.134;18.006;2023-07-09T03:48:18;5.90;;;3.60;;
77085;SDS011;66014;53.134;18.006;2023-07-09T03:50:46;8.30;;;3.80;;
77085;SDS011;66014;53.134;18.006;2023-07-09T03:53:14;5.90;;;3.70;;
77085;SDS011;66014;53.134;18.006;2023-07-09T03:55:42;7.80;;;3.60;;
77085;SDS011;66014;53.134;18.006;2023-07-09T03:58:09;5.80;;;3.70;;
77085;SDS011;66014;53.134;18.006;2023-07-09T04:00:35;6.10;;;3.50;;
77085;SDS011;66014;53.134;18.006;2023-07-09T04:03:02;7.00;;;3.90;;
77085;SDS011;66014;53.134;18.006;2023-07-09T04:05:28;6.50;;;4.20;;
77085;SDS011;66014;53.134;18.006;2023-07-09T04:07:55;6.50;;;3.50;;
77085;SDS011;66014;53.134;18.006;2023-07-09T04:10:24;5.50;;;3.60;;
77085;SDS011;66014;53.134;18.006;2023-07-09T04:12:52;8.10;;;4.30;;
77085;SDS011;66014;53.134;18.006;2023-07-09T04:15:19;9.60;;;3.80;;
77085;SDS011;66014;53.134;18.006;2023-07-09T04:17:47;11.60;;;4.60;;
77085;SDS011;66014;53.134;18.006;2023-07-09T04:20:16;6.70;;;4.30;;
77085;SDS011;66014;53.134;18.006;2023-07-09T04:22:42;7.10;;;4.30;;
77085;SDS011;66014;53.134;18.006;2023-07-09T04:25:10;8.50;;;4.40;;
77085;SDS011;66014;53.134;18.006;2023-07-09T04:27:37;9.40;;;4.80;;
77085;SDS011;66014;53.134;18.006;2023-07-09T04:30:07;6.80;;;3.70;;
77085;SDS011;66014;53.134;18.006;2023-07-09T04:32:36;6.90;;;3.50;;
77085;SDS011;66014;53.134;18.006;2023-07-09T04:35:04;6.60;;;3.60;;
77085;SDS011;66014;53.134;18.006;2023-07-09T04:37:35;7.70;;;3.90;;
77085;SDS011;66014;53.134;18.006;2023-07-09T04:40:01;6.20;;;3.80;;
77085;SDS011;66014;53.134;18.006;2023-07-09T04:42:28;7.00;;;3.70;;
77085;SDS011;66014;53.134;18.006;2023-07-09T04:44:57;7.50;;;4.10;;
77085;SDS011;66014;53.134;18.006;2023-07-09T04:47:23;10.30;;;3.70;;
77085;SDS011;66014;53.134;18.006;2023-07-09T04:49:50;7.60;;;3.50;;
77085;SDS011;66014;53.134;18.006;2023-07-09T04:52:16;7.10;;;3.30;;
77085;SDS011;66014;53.134;18.006;2023-07-09T04:54:43;7.00;;;3.60;;
77085;SDS011;66014;53.134;18.006;2023-07-09T04:57:12;6.80;;;3.60;;
77085;SDS011;66014;53.134;18.006;2023-07-09T04:59:39;6.50;;;3.20;;
77085;SDS011;66014;53.134;18.006;2023-07-09T05:02:05;7.00;;;3.40;;
77085;SDS011;66014;53.134;18.006;2023-07-09T05:04:32;8.00;;;3.80;;
77085;SDS011;66014;53.134;18.006;2023-07-09T05:06:59;5.70;;;3.00;;
77085;SDS011;66014;53.134;18.006;2023-07-09T05:09:26;4.40;;;3.00;;
77085;SDS011;66014;53.134;18.006;2023-07-09T05:11:52;4.70;;;2.80;;
77085;SDS011;66014;53.134;18.006;2023-07-09T05:14:20;5.00;;;3.00;;
77085;SDS011;66014;53.134;18.006;2023-07-09T05:16:47;6.90;;;2.60;;
77085;SDS011;66014;53.134;18.006;2023-07-09T05:19:13;5.00;;;2.50;;
77085;SDS011;66014;53.134;18.006;2023-07-09T05:21:40;6.10;;;3.20;;
77085;SDS011;66014;53.134;18.006;2023-07-09T05:24:06;5.50;;;2.60;;
77085;SDS011;66014;53.134;18.006;2023-07-09T05:26:33;4.80;;;2.50;;
77085;SDS011;66014;53.134;18.006;2023-07-09T05:28:59;6.10;;;2.40;;
77085;SDS011;66014;53.134;18.006;2023-07-09T05:31:26;4.40;;;2.00;;
77085;SDS011;66014;53.134;18.006;2023-07-09T05:33:52;2.90;;;1.80;;
77085;SDS011;66014;53.134;18.006;2023-07-09T05:36:19;5.30;;;1.90;;
77085;SDS011;66014;53.134;18.006;2023-07-09T05:38:46;4.40;;;1.60;;
77085;SDS011;66014;53.134;18.006;2023-07-09T05:41:13;5.60;;;1.90;;
77085;SDS011;66014;53.134;18.006;2023-07-09T05:43:45;4.10;;;1.80;;
77085;SDS011;66014;53.134;18.006;2023-07-09T05:46:12;4.00;;;1.70;;
77085;SDS011;66014;53.134;18.006;2023-07-09T05:48:40;4.10;;;1.60;;
77085;SDS011;66014;53.134;18.006;2023-07-09T05:51:06;5.50;;;1.70;;
77085;SDS011;66014;53.134;18.006;2023-07-09T05:53:33;3.90;;;1.70;;
77085;SDS011;66014;53.134;18.006;2023-07-09T05:56:00;3.70;;;1.50;;
77085;SDS011;66014;53.134;18.006;2023-07-09T05:58:28;3.50;;;1.30;;
77085;SDS011;66014;53.134;18.006;2023-07-09T06:00:54;2.90;;;1.40;;
77085;SDS011;66014;53.134;18.006;2023-07-09T06:03:23;3.30;;;1.30;;
77085;SDS011;66014;53.134;18.006;2023-07-09T06:05:52;8.20;;;1.60;;
77085;SDS011;66014;53.134;18.006;2023-07-09T06:08:20;3.80;;;1.30;;
77085;SDS011;66014;53.134;18.006;2023-07-09T06:10:53;3.40;;;1.30;;
77085;SDS011;66014;53.134;18.006;2023-07-09T06:13:22;2.60;;;1.30;;
77085;SDS011;66014;53.134;18.006;2023-07-09T06:15:50;3.50;;;1.80;;
77085;SDS011;66014;53.134;18.006;2023-07-09T06:18:17;2.80;;;1.20;;
77085;SDS011;66014;53.134;18.006;2023-07-09T06:20:49;3.00;;;1.70;;
77085;SDS011;66014;53.134;18.006;2023-07-09T06:23:17;3.00;;;1.50;;
77085;SDS011;66014;53.134;18.006;2023-07-09T06:25:45;3.40;;;2.00;;
77085;SDS011;66014;53.134;18.006;2023-07-09T06:28:17;4.10;;;1.40;;
77085;SDS011;66014;53.134;18.006;2023-07-09T06:30:46;3.20;;;1.50;;
77085;SDS011;66014;53.134;18.006;2023-07-09T06:33:15;2.70;;;1.20;;
77085;SDS011;66014;53.134;18.006;2023-07-09T06:35:49;4.10;;;1.30;;
77085;SDS011;66014;53.134;18.006;2023-07-09T06:40:44;3.50;;;1.10;;
77085;SDS011;66014;53.134;18.006;2023-07-09T06:43:11;3.40;;;1.30;;
77085;SDS011;66014;53.134;18.006;2023-07-09T06:45:38;4.10;;;1.10;;
77085;SDS011;66014;53.134;18.006;2023-07-09T06:48:05;3.80;;;1.30;;
77085;SDS011;66014;53.134;18.006;2023-07-09T06:50:32;2.30;;;1.10;;
77085;SDS011;66014;53.134;18.006;2023-07-09T06:53:00;3.60;;;1.10;;
77085;SDS011;66014;53.134;18.006;2023-07-09T06:55:26;5.90;;;1.20;;
77085;SDS011;66014;53.134;18.006;2023-07-09T06:57:53;2.80;;;1.20;;
77085;SDS011;66014;53.134;18.006;2023-07-09T07:00:19;4.60;;;1.10;;
77085;SDS011;66014;53.134;18.006;2023-07-09T07:02:46;1.70;;;1.00;;
77085;SDS011;66014;53.134;18.006;2023-07-09T07:05:12;2.30;;;1.20;;
77085;SDS011;66014;53.134;18.006;2023-07-09T07:07:39;3.60;;;1.10;;
77085;SDS011;66014;53.134;18.006;2023-07-09T07:10:06;3.80;;;1.50;;
77085;SDS011;66014;53.134;18.006;2023-07-09T07:12:41;3.00;;;1.40;;
77085;SDS011;66014;53.134;18.006;2023-07-09T07:15:10;2.40;;;1.20;;
77085;SDS011;66014;53.134;18.006;2023-07-09T07:17:39;3.60;;;1.20;;
77085;SDS011;66014;53.134;18.006;2023-07-09T07:20:07;2.30;;;1.20;;
77085;SDS011;66014;53.134;18.006;2023-07-09T07:22:35;3.10;;;1.40;;
77085;SDS011;66014;53.134;18.006;2023-07-09T07:25:03;4.40;;;1.70;;
77085;SDS011;66014;53.134;18.006;2023-07-09T07:29:57;2.40;;;1.50;;
77085;SDS011;66014;53.134;18.006;2023-07-09T07:32:24;3.30;;;1.90;;
77085;SDS011;66014;53.134;18.006;2023-07-09T07:34:51;2.10;;;1.10;;
77085;SDS011;66014;53.134;18.006;2023-07-09T07:37:19;2.70;;;1.10;;
77085;SDS011;66014;53.134;18.006;2023-07-09T07:39:47;2.70;;;1.30;;
77085;SDS011;66014;53.134;18.006;2023-07-09T07:42:15;3.30;;;1.20;;
77085;SDS011;66014;53.134;18.006;2023-07-09T07:44:41;2.60;;;1.10;;
77085;SDS011;66014;53.134;18.006;2023-07-09T07:47:08;2.50;;;1.20;;
77085;SDS011;66014;53.134;18.006;2023-07-09T07:49:35;2.40;;;1.40;;
77085;SDS011;66014;53.134;18.006;2023-07-09T07:52:01;2.30;;;1.20;;
77085;SDS011;66014;53.134;18.006;2023-07-09T07:54:29;3.10;;;1.00;;
77085;SDS011;66014;53.134;18.006;2023-07-09T07:56:58;1.80;;;0.90;;
77085;SDS011;66014;53.134;18.006;2023-07-09T07:59:25;2.50;;;1.10;;
77085;SDS011;66014;53.134;18.006;2023-07-09T08:01:52;2.10;;;1.10;;
77085;SDS011;66014;53.134;18.006;2023-07-09T08:04:18;2.90;;;1.20;;
77085;SDS011;66014;53.134;18.006;2023-07-09T08:06:47;2.10;;;0.90;;
77085;SDS011;66014;53.134;18.006;2023-07-09T08:09:14;2.90;;;1.00;;
77085;SDS011;66014;53.134;18.006;2023-07-09T08:11:41;3.40;;;2.20;;
77085;SDS011;66014;53.134;18.006;2023-07-09T08:14:09;2.30;;;1.00;;
77085;SDS011;66014;53.134;18.006;2023-07-09T08:16:36;3.00;;;1.20;;
77085;SDS011;66014;53.134;18.006;2023-07-09T08:19:03;2.80;;;1.80;;
77085;SDS011;66014;53.134;18.006;2023-07-09T08:21:29;5.80;;;3.50;;
77085;SDS011;66014;53.134;18.006;2023-07-09T08:23:56;3.10;;;1.40;;
77085;SDS011;66014;53.134;18.006;2023-07-09T08:26:24;2.10;;;1.00;;
77085;SDS011;66014;53.134;18.006;2023-07-09T08:28:54;2.10;;;1.10;;
77085;SDS011;66014;53.134;18.006;2023-07-09T08:31:21;3.20;;;1.90;;
77085;SDS011;66014;53.134;18.006;2023-07-09T08:33:55;2.10;;;1.00;;
77085;SDS011;66014;53.134;18.006;2023-07-09T08:36:23;2.10;;;0.90;;
77085;SDS011;66014;53.134;18.006;2023-07-09T08:38:50;2.10;;;1.10;;
77085;SDS011;66014;53.134;18.006;2023-07-09T08:47:17;3.10;;;1.40;;
77085;SDS011;66014;53.134;18.006;2023-07-09T08:49:59;1.50;;;0.90;;
77085;SDS011;66014;53.134;18.006;2023-07-09T08:52:37;1.70;;;0.90;;
77085;SDS011;66014;53.134;18.006;2023-07-09T08:55:07;3.50;;;1.50;;
77085;SDS011;66014;53.134;18.006;2023-07-09T08:57:38;1.60;;;1.00;;
77085;SDS011;66014;53.134;18.006;2023-07-09T09:00:13;1.70;;;0.90;;
77085;SDS011;66014;53.134;18.006;2023-07-09T09:02:50;1.90;;;0.90;;
77085;SDS011;66014;53.134;18.006;2023-07-09T09:05:21;1.60;;;0.90;;
77085;SDS011;66014;53.134;18.006;2023-07-09T09:07:57;1.90;;;0.90;;
77085;SDS011;66014;53.134;18.006;2023-07-09T09:10:32;2.20;;;1.10;;
77085;SDS011;66014;53.134;18.006;2023-07-09T09:13:08;3.70;;;1.50;;
77085;SDS011;66014;53.134;18.006;2023-07-09T09:15:44;1.70;;;0.80;;
77085;SDS011;66014;53.134;18.006;2023-07-09T09:18:18;2.40;;;0.80;;
77085;SDS011;66014;53.134;18.006;2023-07-09T09:20:47;1.60;;;0.80;;
77085;SDS011;66014;53.134;18.006;2023-07-09T09:23:18;3.10;;;1.10;;
77085;SDS011;66014;53.134;18.006;2023-07-09T09:25:47;2.10;;;1.30;;
77085;SDS011;66014;53.134;18.006;2023-07-09T09:30:45;2.10;;;0.80;;
77085;SDS011;66014;53.134;18.006;2023-07-09T09:33:13;0.90;;;0.70;;
77085;SDS011;66014;53.134;18.006;2023-07-09T09:35:45;1.50;;;0.80;;
77085;SDS011;66014;53.134;18.006;2023-07-09T09:38:17;1.90;;;0.90;;
77085;SDS011;66014;53.134;18.006;2023-07-09T09:40:47;1.30;;;0.80;;
77085;SDS011;66014;53.134;18.006;2023-07-09T09:43:16;1.30;;;0.60;;
77085;SDS011;66014;53.134;18.006;2023-07-09T09:45:47;1.50;;;0.80;;
77085;SDS011;66014;53.134;18.006;2023-07-09T09:48:19;1.50;;;0.70;;
77085;SDS011;66014;53.134;18.006;2023-07-09T09:50:52;2.30;;;1.40;;
77085;SDS011;66014;53.134;18.006;2023-07-09T09:53:21;1.80;;;0.90;;
77085;SDS011;66014;53.134;18.006;2023-07-09T09:55:52;2.10;;;1.00;;
77085;SDS011;66014;53.134;18.006;2023-07-09T09:58:29;2.90;;;0.80;;
77085;SDS011;66014;53.134;18.006;2023-07-09T10:00:57;2.50;;;0.90;;
77085;SDS011;66014;53.134;18.006;2023-07-09T10:03:33;1.80;;;0.80;;
77085;SDS011;66014;53.134;18.006;2023-07-09T10:06:21;2.20;;;0.80;;
77085;SDS011;66014;53.134;18.006;2023-07-09T10:12:08;2.10;;;0.70;;
77085;SDS011;66014;53.134;18.006;2023-07-09T10:17:21;3.00;;;1.20;;
77085;SDS011;66014;53.134;18.006;2023-07-09T10:23:09;2.50;;;0.80;;
77085;SDS011;66014;53.134;18.006;2023-07-09T10:36:29;1.40;;;0.70;;
77085;SDS011;66014;53.134;18.006;2023-07-09T10:39:16;3.00;;;1.10;;
77085;SDS011;66014;53.134;18.006;2023-07-09T10:41:48;2.00;;;1.10;;
77085;SDS011;66014;53.134;18.006;2023-07-09T10:44:22;2.10;;;1.10;;
77085;SDS011;66014;53.134;18.006;2023-07-09T10:46:57;2.00;;;1.10;;
77085;SDS011;66014;53.134;18.006;2023-07-09T10:49:30;2.40;;;1.20;;
77085;SDS011;66014;53.134;18.006;2023-07-09T10:52:05;1.20;;;0.70;;
77085;SDS011;66014;53.134;18.006;2023-07-09T10:54:49;1.70;;;0.90;;
77085;SDS011;66014;53.134;18.006;2023-07-09T11:00:38;1.30;;;0.70;;
77085;SDS011;66014;53.134;18.006;2023-07-09T11:03:18;1.60;;;0.80;;
77085;SDS011;66014;53.134;18.006;2023-07-09T11:05:48;1.80;;;0.80;;
77085;SDS011;66014;53.134;18.006;2023-07-09T11:11:04;1.40;;;0.80;;
77085;SDS011;66014;53.134;18.006;2023-07-09T11:13:47;2.00;;;0.80;;
77085;SDS011;66014;53.134;18.006;2023-07-09T11:16:22;1.60;;;0.80;;
77085;SDS011;66014;53.134;18.006;2023-07-09T11:19:00;2.00;;;1.10;;
77085;SDS011;66014;53.134;18.006;2023-07-09T11:23:58;1.30;;;0.70;;
77085;SDS011;66014;53.134;18.006;2023-07-09T11:31:44;2.00;;;0.80;;
77085;SDS011;66014;53.134;18.006;2023-07-09T11:39:23;1.80;;;0.90;;
77085;SDS011;66014;53.134;18.006;2023-07-09T11:41:57;2.20;;;0.90;;
77085;SDS011;66014;53.134;18.006;2023-07-09T11:44:28;2.20;;;1.30;;
77085;SDS011;66014;53.134;18.006;2023-07-09T11:49:47;2.90;;;1.10;;
77085;SDS011;66014;53.134;18.006;2023-07-09T11:52:20;1.90;;;0.70;;
77085;SDS011;66014;53.134;18.006;2023-07-09T11:57:21;1.90;;;0.80;;
77085;SDS011;66014;53.134;18.006;2023-07-09T11:59:48;3.20;;;1.30;;
77085;SDS011;66014;53.134;18.006;2023-07-09T12:02:30;1.40;;;0.80;;
77085;SDS011;66014;53.134;18.006;2023-07-09T12:05:03;1.60;;;0.80;;
77085;SDS011;66014;53.134;18.006;2023-07-09T12:07:30;2.60;;;0.80;;
77085;SDS011;66014;53.134;18.006;2023-07-09T12:10:03;1.90;;;1.00;;
77085;SDS011;66014;53.134;18.006;2023-07-09T12:12:43;2.60;;;1.00;;
77085;SDS011;66014;53.134;18.006;2023-07-09T12:15:16;1.90;;;1.00;;
77085;SDS011;66014;53.134;18.006;2023-07-09T12:17:58;3.00;;;1.40;;
77085;SDS011;66014;53.134;18.006;2023-07-09T12:20:29;1.80;;;1.00;;
77085;SDS011;66014;53.134;18.006;2023-07-09T12:22:59;3.30;;;1.40;;
77085;SDS011;66014;53.134;18.006;2023-07-09T12:25:27;2.50;;;1.30;;
77085;SDS011;66014;53.134;18.006;2023-07-09T12:27:57;2.00;;;1.10;;
77085;SDS011;66014;53.134;18.006;2023-07-09T12:30:25;2.50;;;1.20;;
77085;SDS011;66014;53.134;18.006;2023-07-09T12:32:51;2.70;;;1.10;;
77085;SDS011;66014;53.134;18.006;2023-07-09T12:35:18;2.20;;;0.90;;
77085;SDS011;66014;53.134;18.006;2023-07-09T12:37:47;3.00;;;0.90;;
77085;SDS011;66014;53.134;18.006;2023-07-09T12:40:19;2.60;;;1.00;;
77085;SDS011;66014;53.134;18.006;2023-07-09T12:42:48;1.90;;;1.00;;
77085;SDS011;66014;53.134;18.006;2023-07-09T12:45:19;2.10;;;1.20;;
77085;SDS011;66014;53.134;18.006;2023-07-09T12:47:47;2.70;;;1.20;;
77085;SDS011;66014;53.134;18.006;2023-07-09T12:50:21;1.60;;;0.80;;
77085;SDS011;66014;53.134;18.006;2023-07-09T12:52:56;2.40;;;1.30;;
77085;SDS011;66014;53.134;18.006;2023-07-09T12:55:27;3.40;;;1.10;;
77085;SDS011;66014;53.134;18.006;2023-07-09T12:57:58;3.00;;;1.30;;
77085;SDS011;66014;53.134;18.006;2023-07-09T13:00:29;1.90;;;1.00;;
77085;SDS011;66014;53.134;18.006;2023-07-09T13:02:58;2.10;;;1.00;;
77085;SDS011;66014;53.134;18.006;2023-07-09T13:05:26;2.30;;;0.90;;
77085;SDS011;66014;53.134;18.006;2023-07-09T13:08:00;2.20;;;0.80;;
77085;SDS011;66014;53.134;18.006;2023-07-09T13:10:31;1.80;;;0.90;;
77085;SDS011;66014;53.134;18.006;2023-07-09T13:13:01;2.70;;;1.00;;
77085;SDS011;66014;53.134;18.006;2023-07-09T13:15:30;2.20;;;1.00;;
77085;SDS011;66014;53.134;18.006;2023-07-09T13:18:04;2.50;;;1.30;;
77085;SDS011;66014;53.134;18.006;2023-07-09T13:20:32;2.30;;;1.00;;
77085;SDS011;66014;53.134;18.006;2023-07-09T13:25:43;2.90;;;1.10;;
77085;SDS011;66014;53.134;18.006;2023-07-09T13:28:15;2.50;;;1.40;;
77085;SDS011;66014;53.134;18.006;2023-07-09T13:33:28;2.30;;;0.90;;
77085;SDS011;66014;53.134;18.006;2023-07-09T13:35:55;1.80;;;1.00;;
77085;SDS011;66014;53.134;18.006;2023-07-09T13:38:23;3.00;;;1.10;;
77085;SDS011;66014;53.134;18.006;2023-07-09T13:40:56;2.40;;;1.20;;
77085;SDS011;66014;53.134;18.006;2023-07-09T13:45:57;3.00;;;1.20;;
77085;SDS011;66014;53.134;18.006;2023-07-09T13:48:26;1.90;;;1.10;;
77085;SDS011;66014;53.134;18.006;2023-07-09T13:50:55;2.00;;;1.00;;
77085;SDS011;66014;53.134;18.006;2023-07-09T13:53:24;2.50;;;1.30;;
77085;SDS011;66014;53.134;18.006;2023-07-09T13:55:53;2.50;;;1.30;;
77085;SDS011;66014;53.134;18.006;2023-07-09T13:58:24;3.00;;;1.30;;
77085;SDS011;66014;53.134;18.006;2023-07-09T14:00:54;2.80;;;1.00;;
77085;SDS011;66014;53.134;18.006;2023-07-09T14:03:26;1.90;;;1.10;;
77085;SDS011;66014;53.134;18.006;2023-07-09T14:05:57;3.20;;;1.30;;
77085;SDS011;66014;53.134;18.006;2023-07-09T14:08:26;2.60;;;1.40;;
77085;SDS011;66014;53.134;18.006;2023-07-09T14:10:53;2.50;;;1.20;;
77085;SDS011;66014;53.134;18.006;2023-07-09T14:13:21;2.10;;;1.10;;
77085;SDS011;66014;53.134;18.006;2023-07-09T14:15:50;1.80;;;1.00;;
77085;SDS011;66014;53.134;18.006;2023-07-09T14:18:21;2.30;;;1.20;;
77085;SDS011;66014;53.134;18.006;2023-07-09T14:20:49;2.30;;;1.10;;
77085;SDS011;66014;53.134;18.006;2023-07-09T14:23:17;2.40;;;1.20;;
77085;SDS011;66014;53.134;18.006;2023-07-09T14:25:44;2.60;;;1.10;;
77085;SDS011;66014;53.134;18.006;2023-07-09T14:28:19;2.80;;;1.20;;
77085;SDS011;66014;53.134;18.006;2023-07-09T14:30:48;2.70;;;1.20;;
77085;SDS011;66014;53.134;18.006;2023-07-09T14:33:18;2.20;;;1.30;;
77085;SDS011;66014;53.134;18.006;2023-07-09T14:35:48;2.40;;;1.30;;
77085;SDS011;66014;53.134;18.006;2023-07-09T14:40:47;2.40;;;1.20;;
77085;SDS011;66014;53.134;18.006;2023-07-09T14:43:15;3.00;;;1.20;;
77085;SDS011;66014;53.134;18.006;2023-07-09T14:45:43;1.80;;;1.00;;
77085;SDS011;66014;53.134;18.006;2023-07-09T14:48:17;2.50;;;1.20;;
77085;SDS011;66014;53.134;18.006;2023-07-09T14:50:46;2.20;;;1.10;;
77085;SDS011;66014;53.134;18.006;2023-07-09T14:53:15;1.90;;;1.00;;
77085;SDS011;66014;53.134;18.006;2023-07-09T14:55:45;2.40;;;1.30;;
77085;SDS011;66014;53.134;18.006;2023-07-09T14:58:21;2.60;;;1.40;;
77085;SDS011;66014;53.134;18.006;2023-07-09T15:00:50;2.60;;;1.40;;
77085;SDS011;66014;53.134;18.006;2023-07-09T15:03:18;2.50;;;1.20;;
77085;SDS011;66014;53.134;18.006;2023-07-09T15:05:47;2.20;;;1.30;;
77085;SDS011;66014;53.134;18.006;2023-07-09T15:08:15;2.50;;;1.30;;
77085;SDS011;66014;53.134;18.006;2023-07-09T15:10:43;4.80;;;1.40;;
77085;SDS011;66014;53.134;18.006;2023-07-09T15:13:55;2.70;;;1.40;;
77085;SDS011;66014;53.134;18.006;2023-07-09T15:16:03;3.00;;;1.50;;
77085;SDS011;66014;53.134;18.006;2023-07-09T15:18:31;2.70;;;1.30;;
77085;SDS011;66014;53.134;18.006;2023-07-09T15:21:06;2.70;;;1.40;;
77085;SDS011;66014;53.134;18.006;2023-07-09T15:23:38;2.60;;;1.30;;
77085;SDS011;66014;53.134;18.006;2023-07-09T15:26:16;2.20;;;1.20;;
77085;SDS011;66014;53.134;18.006;2023-07-09T15:28:43;2.30;;;1.30;;
77085;SDS011;66014;53.134;18.006;2023-07-09T15:31:12;3.10;;;1.30;;
77085;SDS011;66014;53.134;18.006;2023-07-09T15:34:00;3.40;;;1.60;;
77085;SDS011;66014;53.134;18.006;2023-07-09T15:36:27;4.10;;;1.50;;
77085;SDS011;66014;53.134;18.006;2023-07-09T15:39:01;2.20;;;1.20;;
77085;SDS011;66014;53.134;18.006;2023-07-09T15:41:27;2.80;;;1.40;;
77085;SDS011;66014;53.134;18.006;2023-07-09T15:46:52;2.80;;;1.50;;
77085;SDS011;66014;53.134;18.006;2023-07-09T15:49:24;2.70;;;1.50;;
77085;SDS011;66014;53.134;18.006;2023-07-09T15:52:00;3.80;;;1.70;;
77085;SDS011;66014;53.134;18.006;2023-07-09T15:54:30;3.70;;;1.80;;
77085;SDS011;66014;53.134;18.006;2023-07-09T15:56:56;2.80;;;1.70;;
77085;SDS011;66014;53.134;18.006;2023-07-09T15:59:28;3.70;;;1.70;;
77085;SDS011;66014;53.134;18.006;2023-07-09T16:01:55;2.10;;;1.20;;
77085;SDS011;66014;53.134;18.006;2023-07-09T16:04:23;3.00;;;1.70;;
77085;SDS011;66014;53.134;18.006;2023-07-09T16:06:50;2.40;;;1.50;;